createdAt,value
2019-02-19T00:01:50.075Z,9.23
2019-02-19T00:05:48.590Z,11.23
2019-02-19T00:09:47.136Z,12.07
2019-02-19T00:13:48.937Z,9.30
2019-02-19T00:17:47.527Z,10.63
2019-02-19T00:21:46.087Z,14.20
2019-02-19T00:25:44.578Z,17.33
2019-02-19T00:29:43.121Z,12.37
2019-02-19T00:33:44.718Z,12.87
2019-02-19T00:37:43.296Z,14.93
2019-02-19T00:41:41.846Z,12.87
2019-02-19T00:45:40.353Z,14.97
2019-02-19T00:49:38.928Z,13.17
2019-02-19T00:53:37.462Z,16.30
2019-02-19T00:57:58.336Z,10.60
2019-02-19T01:01:36.211Z,13.43
2019-02-19T01:05:34.709Z,15.40
2019-02-19T01:09:33.359Z,8.93
2019-02-19T01:13:31.913Z,13.83
2019-02-19T01:17:30.477Z,8.20
2019-02-19T01:21:28.978Z,10.17
2019-02-19T01:25:27.532Z,11.53
2019-02-19T01:29:26.155Z,11.80
2019-02-19T01:33:24.699Z,8.17
2019-02-19T01:37:23.266Z,12.40
2019-02-19T01:41:21.830Z,13.90
2019-02-19T01:45:20.456Z,11.67
2019-02-19T01:49:19.018Z,10.07
2019-02-19T01:57:35.158Z,14.77
2019-02-19T02:01:34.081Z,13.37
2019-02-19T02:05:32.662Z,11.10
2019-02-19T02:09:31.365Z,15.87
2019-02-19T02:13:29.942Z,19.37
2019-02-19T02:17:28.549Z,16.43
2019-02-19T02:21:27.122Z,15.17
2019-02-19T02:25:25.722Z,19.67
2019-02-19T02:29:24.302Z,23.27
2019-02-19T02:33:22.842Z,20.30
2019-02-19T02:37:21.487Z,24.17
2019-02-19T02:41:20.715Z,23.87
2019-02-19T02:45:19.332Z,26.77
2019-02-19T02:49:17.872Z,27.73
2019-02-19T02:53:16.455Z,25.03
2019-02-19T02:57:15.025Z,29.10
2019-02-19T03:01:13.591Z,29.27
2019-02-19T03:05:12.226Z,32.80
2019-02-19T03:09:10.792Z,31.97
2019-02-19T03:13:09.358Z,24.40
2019-02-19T03:17:10.969Z,24.80
2019-02-19T03:21:09.838Z,26.10
2019-02-19T03:25:08.648Z,29.37
2019-02-19T03:29:07.857Z,25.27
2019-02-19T03:37:18.901Z,23.57
2019-02-19T03:41:17.920Z,25.67
2019-02-19T03:45:16.557Z,21.63
2019-02-19T03:49:15.124Z,25.67
2019-02-19T03:53:13.792Z,24.60
2019-02-19T03:57:12.374Z,21.00
2019-02-19T04:01:14.019Z,21.27
2019-02-19T04:05:12.689Z,27.43
2019-02-19T04:09:11.279Z,29.10
2019-02-19T04:13:09.908Z,27.60
2019-02-19T04:17:15.561Z,25.13
2019-02-19T04:21:14.261Z,26.13
2019-02-19T04:25:12.893Z,26.33
2019-02-19T04:29:11.482Z,24.37
2019-02-19T04:33:10.061Z,28.67
2019-02-19T04:37:09.832Z,31.97
2019-02-19T04:41:11.265Z,32.90
2019-02-19T04:45:09.928Z,31.47
2019-02-19T04:49:08.494Z,30.67
2019-02-19T04:53:07.124Z,34.20
2019-02-19T04:57:05.792Z,32.77
2019-02-19T05:01:04.386Z,28.73
2019-02-19T05:05:02.976Z,24.20
2019-02-19T05:09:01.556Z,28.13
2019-02-19T05:13:00.275Z,26.23
2019-02-19T05:17:00.391Z,28.93
2019-02-19T05:20:59.733Z,24.70
2019-02-19T05:24:58.339Z,34.63
2019-02-19T05:28:56.915Z,32.07
2019-02-19T05:32:55.498Z,30.53
2019-02-19T05:36:54.141Z,32.07
2019-02-19T05:40:54.316Z,34.57
2019-02-19T05:44:54.733Z,29.77
2019-02-19T05:48:53.331Z,30.57
2019-02-19T05:52:51.909Z,34.20
2019-02-19T05:56:50.433Z,37.70
2019-02-19T06:00:49.039Z,38.87
2019-02-19T06:04:50.186Z,32.90
2019-02-19T06:08:49.123Z,39.80
2019-02-19T06:12:47.760Z,43.70
2019-02-19T06:16:48.338Z,47.83
2019-02-19T06:20:47.058Z,37.93
2019-02-19T06:24:47.080Z,52.30
2019-02-19T06:28:45.667Z,41.20
2019-02-19T06:32:44.377Z,46.53
2019-02-19T06:36:42.947Z,49.00
2019-02-19T06:40:54.397Z,54.83
2019-02-19T06:44:53.001Z,54.73
2019-02-19T06:48:51.590Z,55.80
2019-02-19T06:52:50.226Z,52.23
2019-02-19T06:56:48.753Z,48.47
2019-02-19T07:00:47.346Z,57.97
2019-02-19T07:04:47.799Z,50.77
2019-02-19T07:08:48.160Z,47.73
2019-02-19T07:12:46.932Z,39.20
2019-02-19T07:16:45.913Z,46.80
2019-02-19T07:20:47.560Z,46.97
2019-02-19T07:24:47.809Z,39.50
2019-02-19T07:28:46.377Z,44.60
2019-02-19T07:32:44.998Z,35.13
2019-02-19T07:36:43.610Z,35.30
2019-02-19T07:40:42.246Z,43.70
2019-02-19T07:44:41.177Z,35.83
2019-02-19T07:48:42.576Z,40.27
2019-02-19T07:52:41.821Z,38.80
2019-02-19T07:56:40.487Z,33.50
2019-02-19T08:00:39.425Z,38.13
2019-02-19T08:04:38.034Z,37.40
2019-02-19T08:08:36.638Z,26.27
2019-02-19T08:12:39.734Z,29.67
2019-02-19T08:16:38.335Z,27.73
2019-02-19T08:20:36.950Z,32.77
2019-02-19T08:24:35.581Z,29.00
2019-02-19T08:28:34.203Z,36.70
2019-02-19T08:32:32.787Z,42.23
2019-02-19T08:36:32.928Z,26.37
2019-02-19T08:40:31.587Z,32.53
2019-02-19T08:44:30.164Z,28.70
2019-02-19T08:48:28.794Z,33.60
2019-02-19T08:52:28.003Z,32.47
2019-02-19T08:56:32.679Z,26.17
2019-02-19T09:00:31.367Z,30.60
2019-02-19T09:04:33.162Z,31.27
2019-02-19T09:08:31.826Z,29.87
2019-02-19T09:12:30.687Z,36.53
2019-02-19T09:16:29.675Z,26.50
2019-02-19T09:20:28.349Z,25.57
2019-02-19T09:24:26.931Z,26.73
2019-02-19T09:28:25.507Z,29.00
2019-02-19T09:32:24.110Z,28.77
2019-02-19T09:36:23.496Z,22.43
2019-02-19T09:40:22.036Z,20.43
2019-02-19T09:44:21.217Z,30.63
2019-02-19T09:48:19.773Z,24.43
2019-02-19T09:52:21.283Z,22.10
2019-02-19T09:56:20.153Z,22.73
2019-02-19T10:00:19.040Z,22.97
2019-02-19T10:04:18.451Z,19.60
2019-02-19T10:08:17.138Z,20.63
2019-02-19T10:12:15.754Z,19.80
2019-02-19T10:16:14.902Z,18.60
2019-02-19T10:20:13.551Z,16.20
2019-02-19T10:24:13.917Z,17.30
2019-02-19T10:28:12.593Z,15.77
2019-02-19T10:32:14.451Z,14.03
2019-02-19T10:36:13.049Z,16.23
2019-02-19T10:40:19.802Z,12.47
2019-02-19T10:44:20.239Z,18.90
2019-02-19T10:48:19.426Z,17.73
2019-02-19T10:52:18.703Z,12.90
2019-02-19T10:56:17.337Z,13.33
2019-02-19T11:00:19.890Z,11.20
2019-02-19T11:04:18.470Z,15.77
2019-02-19T11:08:18.681Z,15.20
2019-02-19T11:12:17.337Z,19.63
2019-02-19T11:16:15.909Z,10.77
2019-02-19T11:20:20.055Z,17.03
2019-02-19T11:24:18.619Z,10.73
2019-02-19T11:28:17.221Z,15.67
2019-02-19T11:32:16.065Z,17.30
2019-02-19T11:36:14.666Z,16.03
2019-02-19T11:40:14.559Z,10.23
2019-02-19T11:44:13.116Z,18.77
2019-02-19T11:48:13.457Z,13.00
2019-02-19T11:52:13.554Z,18.23
2019-02-19T11:56:12.215Z,20.80
2019-02-19T12:00:23.714Z,16.33
2019-02-19T12:04:31.953Z,16.67
2019-02-19T12:08:38.659Z,14.07
2019-02-19T12:12:32.966Z,9.73
2019-02-19T12:16:31.561Z,17.60
2019-02-19T12:20:30.164Z,14.03
2019-02-19T12:24:28.751Z,12.43
2019-02-19T12:28:27.338Z,15.70
2019-02-19T12:32:26.018Z,15.43
2019-02-19T12:36:25.658Z,13.70
2019-02-19T12:40:24.793Z,7.27
2019-02-19T12:44:24.204Z,8.97
2019-02-19T12:48:22.803Z,15.97
2019-02-19T12:52:21.434Z,12.97
2019-02-19T12:56:23.468Z,12.00
2019-02-19T13:00:22.203Z,7.53
2019-02-19T13:04:21.782Z,10.03
2019-02-19T13:08:23.177Z,8.87
2019-02-19T13:12:21.782Z,14.53
2019-02-19T13:16:20.443Z,15.10
2019-02-19T13:20:20.033Z,11.00
2019-02-19T13:24:18.629Z,13.83
2019-02-19T13:28:20.658Z,13.97
2019-02-19T13:32:19.512Z,12.17
2019-02-19T13:36:18.107Z,10.27
2019-02-19T13:40:19.019Z,16.77
2019-02-19T13:44:17.611Z,13.60
2019-02-19T13:48:16.206Z,8.27
2019-02-19T13:52:22.439Z,8.53
2019-02-19T13:56:16.734Z,12.97
2019-02-19T14:00:17.621Z,11.67
2019-02-19T14:04:16.214Z,9.07
2019-02-19T14:08:15.053Z,16.47
2019-02-19T14:12:14.084Z,9.97
2019-02-19T14:16:20.249Z,14.30
2019-02-19T14:20:20.519Z,8.50
2019-02-19T14:24:20.726Z,13.30
2019-02-19T14:28:41.826Z,10.03
2019-02-19T14:32:42.102Z,19.67
2019-02-19T14:36:58.975Z,11.57
2019-02-19T14:41:15.858Z,14.37
2019-02-19T14:45:21.894Z,6.93
2019-02-19T14:49:36.732Z,13.43
2019-02-19T14:53:45.037Z,10.27
2019-02-19T14:57:54.046Z,15.20
2019-02-19T15:01:54.268Z,10.80
2019-02-19T15:05:57.372Z,10.17
2019-02-19T15:10:13.884Z,14.00
2019-02-19T15:14:17.526Z,14.03
2019-02-19T15:18:34.242Z,6.23
2019-02-19T15:22:49.500Z,6.80
2019-02-19T15:27:04.313Z,7.63
2019-02-19T15:31:13.617Z,10.37
2019-02-19T15:35:28.857Z,11.30
2019-02-19T15:39:34.538Z,5.93
2019-02-19T15:43:37.731Z,5.00
2019-02-19T15:47:37.946Z,10.70
2019-02-19T15:51:43.867Z,19.20
2019-02-19T15:55:50.218Z,11.57
2019-02-19T15:59:50.444Z,15.57
2019-02-19T16:03:50.757Z,13.97
2019-02-19T16:07:51.006Z,11.07
2019-02-19T16:12:00.587Z,11.33
2019-02-19T16:16:00.791Z,9.53
2019-02-19T16:20:13.110Z,17.77
2019-02-19T16:24:19.397Z,9.33
2019-02-19T16:28:35.863Z,11.03
2019-02-19T16:32:39.138Z,8.50
2019-02-19T16:36:39.405Z,10.67
2019-02-19T16:40:51.510Z,8.97
2019-02-19T16:45:04.090Z,8.80
2019-02-19T16:49:13.296Z,13.57
2019-02-19T16:53:19.734Z,9.83
2019-02-19T16:57:22.992Z,14.07
2019-02-19T17:01:25.996Z,10.53
2019-02-19T17:05:26.257Z,14.43
2019-02-19T17:09:29.252Z,10.17
2019-02-19T17:13:29.502Z,15.17
2019-02-19T17:17:35.602Z,11.30
2019-02-19T17:21:35.818Z,10.77
2019-02-19T17:25:36.100Z,14.57
2019-02-19T17:29:52.935Z,12.27
2019-02-19T17:34:02.114Z,12.03
2019-02-19T17:38:18.928Z,13.20
2019-02-19T17:42:25.001Z,20.30
2019-02-19T17:46:43.601Z,12.97
2019-02-19T17:50:53.323Z,18.97
2019-02-19T17:54:56.559Z,14.90
2019-02-19T17:59:13.085Z,13.43
2019-02-19T18:03:16.227Z,16.27
2019-02-19T18:07:16.579Z,14.27
2019-02-19T18:11:19.280Z,19.30
2019-02-19T18:15:36.098Z,8.33
2019-02-19T18:19:35.057Z,26.73
2019-02-19T18:23:35.720Z,19.40
2019-02-19T18:27:34.318Z,17.07
2019-02-19T18:31:32.896Z,13.03
2019-02-19T18:35:32.393Z,8.00
2019-02-19T18:39:32.079Z,14.53
2019-02-19T18:43:30.701Z,17.93
2019-02-19T18:47:29.272Z,16.03
2019-02-19T18:51:27.942Z,17.27
2019-02-19T18:55:26.587Z,15.10
2019-02-19T18:59:25.195Z,12.80
2019-02-19T19:03:23.816Z,19.57
2019-02-19T19:07:22.394Z,12.60
2019-02-19T19:11:28.625Z,12.17
2019-02-19T19:15:27.790Z,17.27
2019-02-19T19:19:26.975Z,17.00
2019-02-19T19:23:25.604Z,16.23
2019-02-19T19:27:24.227Z,20.23
2019-02-19T19:31:22.830Z,14.73
2019-02-19T19:35:21.453Z,18.47
2019-02-19T19:39:20.083Z,25.00
2019-02-19T19:43:18.632Z,19.07
2019-02-19T19:47:17.257Z,19.37
2019-02-19T19:51:17.470Z,18.60
2019-02-19T19:55:16.187Z,15.73
2019-02-19T19:59:14.800Z,19.47
2019-02-19T20:03:14.260Z,18.93
2019-02-19T20:07:12.870Z,24.97
2019-02-19T20:11:11.955Z,34.07
2019-02-19T20:15:12.184Z,27.77
2019-02-19T20:19:11.949Z,19.13
2019-02-19T20:23:16.473Z,19.90
2019-02-19T20:27:10.997Z,27.90
2019-02-19T20:31:09.682Z,19.23
2019-02-19T20:35:10.175Z,21.37
2019-02-19T20:39:08.865Z,15.10
2019-02-19T20:43:07.543Z,14.80
2019-02-19T20:47:06.115Z,15.23
2019-02-19T20:51:04.701Z,15.23
2019-02-19T20:55:03.358Z,14.00
2019-02-19T20:59:01.934Z,11.87
2019-02-19T21:03:00.602Z,13.80
2019-02-19T21:07:00.148Z,19.33
2019-02-19T21:10:58.722Z,12.20
2019-02-19T21:14:57.830Z,15.87
2019-02-19T21:18:57.194Z,17.47
2019-02-19T21:22:57.530Z,19.13
2019-02-19T21:26:56.109Z,14.50
2019-02-19T21:30:57.734Z,17.37
2019-02-19T21:34:56.385Z,18.90
2019-02-19T21:38:54.890Z,18.07
2019-02-19T21:42:53.633Z,15.03
2019-02-19T21:46:52.299Z,17.03
2019-02-19T21:50:50.918Z,15.40
2019-02-19T21:54:49.558Z,11.00
2019-02-19T21:58:48.141Z,16.50
2019-02-19T22:02:47.792Z,17.73
2019-02-19T22:06:46.384Z,16.90
2019-02-19T22:10:50.374Z,18.33
2019-02-19T22:14:49.045Z,21.27
2019-02-19T22:18:47.649Z,20.07
2019-02-19T22:22:46.194Z,17.40
2019-02-19T22:26:44.803Z,11.70
2019-02-19T22:30:45.024Z,25.57
2019-02-19T22:34:43.583Z,18.70
2019-02-19T22:38:42.193Z,24.43
2019-02-19T22:42:40.751Z,21.30
2019-02-19T22:46:39.364Z,20.37
2019-02-19T22:50:37.964Z,24.50
2019-02-19T22:54:41.169Z,27.63
2019-02-19T22:58:39.754Z,20.40
2019-02-19T23:02:38.384Z,21.53
2019-02-19T23:06:37.003Z,20.57
2019-02-19T23:10:35.607Z,17.90
2019-02-19T23:14:34.160Z,26.53
2019-02-19T23:18:35.636Z,26.30
2019-02-19T23:22:35.686Z,20.73
2019-02-19T23:26:34.315Z,21.47
2019-02-19T23:30:33.736Z,14.77
2019-02-19T23:34:41.361Z,22.27
2019-02-19T23:38:40.395Z,22.37
2019-02-19T23:42:43.548Z,22.67
2019-02-19T23:46:43.939Z,26.37
2019-02-19T23:50:42.364Z,23.97
2019-02-19T23:54:40.938Z,19.40
2019-02-19T23:58:42.461Z,25.63
